Grand Strand Airport North Myrtle Beach US
ICAO: KCRE
IATA: CRE
Category: Medium
Scheduled Services: No

Elevation: 32 ft
TransAlt. 18000 ft.

Airport Communications:
MYRTLE BEACH APP/DEP:119.2
ATIS:119.625
CTAF:124.6
STRAND GND:121.8
ANDERSON RDO:123.6
STRAND TWR:124.6
UNICOM:122.95

KCRE Zoom In..

Runways:

(A) RW 05 length 5997 ft width 100 ft
---- / hdg 54

(B) RW 23 length 5997 ft width 100 ft
ILS 111.70 / hdg 234

Location; KCRE
Day. 03 / Time. 09.53 Zulu
* Altimeter: 30.31
* Temperature: -01° c. -30.2°f.
* Wind from: 000° Speed 00 kn.
Dewpoint: -01° c.
Visibility: 10 Statute Miles.
Clouds: Clear (automated report).

KCRE 030953Z AUTO 00000KT 10SM CLR M01/M01 A3031 RMK AO1 SLP263 I1001 T10111011

Going to: --> -->


Wind - Calm.

 
 
jpsmedia worldairports.se 2020   terms of use